Главная страница
METAR-TAF:

METAR-TAF

Аэропорты :

Кольцово

Екатеринбург, Россия

широта: 56-50N, долгота: 060-38E, высота над уровнем моря: 237 м

Текущие метеонаблюдения

Эта сводка был подготовлена 38 минут назад, в 01:30 UTC
Ветер 2 Узел от восточно-юго-восточный
Температура -4°C
Влажность 100%
Давление 1020 hPa
Видимость 10 км и более
небольшая облачность на высоте 4000 фута

METAR: USSS 160130Z 11001MPS 9999 FEW040 M04/M04 Q1020 R26R/120050 NOSIG RMK QFE744/0992

Время: 07:08 (02:08 UTC)

Прогноз

Эта сводка был подготовлена 3 часа и 9 минут назад, в 22:59 UTC
Прогноз действительный с 16-го 00 UTC до 16-го 24 UTC
Ветер 6 Узел от южный с порывами до 23 Узел
Видимость 10 км и более
Рассеянная облачность на высоте 1500 фута
изменения
С 16-го 09 UTC до 16-го 11 UTC
Видимость: 3100 м
Рассеянная облачность на высоте 1100 фута
небольшой дождь, снег

TAF: USSS 152259Z 1600/1624 18003G12MPS 9999 BKN015 BECMG 1609/1611 3100 -RASN BKN011

Метеонаблюдения и прогнозы для более 4000 аэропортов (сводки METAR и TAF).

Имеющиеся станции представлены на карте желтыми и красными точками.

Чтобы увидеть название станции, наведите на нее мышь.

Затем щелкните, чтобы увидеть метеонаблюдения и метеопрогнозы.

Управление картой: чтобы увеличить масштаб, щелкните зеленые кнопки с черным крестиком; чтобы уменьшить масштаб, щелкните зеленую кнопку с тире; для просмотра соседних карт щелкайте зеленые стрелки.


METAR-TAF: